Time;durP1;ratioP1;P1;durP2;ratioP2;P2;SDS_P1;SDS_P2;PMS_P1;PMS_P2;Temp;Humidity;BMP_temperature;BMP_pressure;BME280_temperature;BME280_humidity;BME280_pressure;Samples;Min_cycle;Max_cycle;Signal;HPM_P1;HPM_P2
2022/11/12 00:02:04;;;;;;;;;;;5.40;99.90;;;;;;5010722;28;19928;-67
2022/11/12 00:04:29;;;;;;;;;;;5.40;99.90;;;;;;5024021;28;19928;-69
2022/11/12 00:06:55;;;;;;;;;;;5.40;99.90;;;;;;5040752;22;19937;-68
2022/11/12 00:09:20;;;;;;;;;;;5.40;99.90;;;;;;5056100;28;19924;-68
2022/11/12 00:11:46;;;;;;;;;;;5.40;99.90;;;;;;5038570;28;19928;-68
2022/11/12 00:14:11;;;;;;;;;;;5.40;99.90;;;;;;5052089;28;19948;-69
2022/11/12 00:16:37;;;;;;;;;;;5.40;99.90;;;;;;5040822;28;19929;-69
2022/11/12 00:19:02;;;;;;;;;;;5.40;99.90;;;;;;5033426;28;19920;-69
2022/11/12 00:21:28;;;;;;;;;;;5.30;99.90;;;;;;5052255;28;20365;-68
2022/11/12 00:23:53;;;;;;;;;;;5.30;99.90;;;;;;5029715;28;19927;-68
2022/11/12 00:26:19;;;;;;;;;;;5.30;99.90;;;;;;5045474;28;19928;-68
2022/11/12 00:28:44;;;;;;;;;;;5.30;99.90;;;;;;5033487;28;20021;-69
2022/11/12 00:31:10;;;;;;;;;;;5.30;99.90;;;;;;5034299;28;19929;-68
2022/11/12 00:33:40;;;;;;;;;;;5.20;99.90;;;;;;5033005;28;19931;-68
2022/11/12 00:36:05;;;;;;;;;;;5.20;99.90;;;;;;5029800;28;19921;-68
2022/11/12 00:38:31;;;;;;;;;;;5.20;99.90;;;;;;5033156;28;20481;-68
2022/11/12 00:40:59;;;;;;;;;;;5.20;99.90;;;;;;5037915;28;19921;-68
2022/11/12 00:43:25;;;;;;;;;;;5.20;99.90;;;;;;5032037;28;19963;-68
2022/11/12 00:45:50;;;;;;;;;;;5.20;99.90;;;;;;5032652;28;19952;-68
2022/11/12 00:48:16;;;;;;;;;;;5.20;99.90;;;;;;5031926;28;19928;-68
2022/11/12 00:50:41;;;;;;;;;;;5.10;99.90;;;;;;5050231;28;20336;-68
2022/11/12 00:53:07;;;;;;;;;;;5.10;99.90;;;;;;5050545;28;19931;-69
2022/11/12 00:55:32;;;;;;;;;;;5.20;99.90;;;;;;5033825;28;19943;-68
2022/11/12 00:57:58;;;;;;;;;;;5.10;99.90;;;;;;5025048;28;19929;-68
2022/11/12 01:00:23;;;;;;;;;;;5.10;99.90;;;;;;5051675;28;19928;-68
2022/11/12 01:02:49;;;;;;;;;;;5.10;99.90;;;;;;5032680;28;20445;-68
2022/11/12 01:05:15;;;;;;;;;;;5.10;99.90;;;;;;5033152;28;20011;-68
2022/11/12 01:07:40;;;;;;;;;;;5.00;99.90;;;;;;5032219;28;20007;-68
2022/11/12 01:10:07;;;;;;;;;;;5.00;99.90;;;;;;5031852;28;19932;-68
2022/11/12 01:12:32;;;;;;;;;;;5.00;99.90;;;;;;5051450;28;20007;-68
2022/11/12 01:14:58;;;;;;;;;;;5.00;99.90;;;;;;5048490;28;20341;-68
2022/11/12 01:17:23;;;;;;;;;;;4.90;99.90;;;;;;5036221;28;19932;-68
2022/11/12 01:19:49;;;;;;;;;;;4.90;99.90;;;;;;5029679;28;20649;-69
2022/11/12 01:22:14;;;;;;;;;;;4.90;99.90;;;;;;5033548;28;19991;-68
2022/11/12 01:24:40;;;;;;;;;;;4.80;99.90;;;;;;5033367;28;19921;-68
2022/11/12 01:27:05;;;;;;;;;;;4.80;99.90;;;;;;5048926;28;20419;-68
2022/11/12 01:29:31;;;;;;;;;;;4.80;99.90;;;;;;5048310;28;20358;-68
2022/11/12 01:31:57;;;;;;;;;;;;;;;;;;5032686;28;19929;-68
2022/11/12 01:34:22;;;;;;;;;;;4.80;99.90;;;;;;5033148;28;19965;-68
2022/11/12 01:36:48;;;;;;;;;;;4.80;99.90;;;;;;5051203;28;19925;-68
2022/11/12 01:39:13;;;;;;;;;;;4.70;99.90;;;;;;5033715;28;20244;-69
2022/11/12 01:41:39;;;;;;;;;;;4.70;99.90;;;;;;5032350;28;20007;-68
2022/11/12 01:44:09;;;;;;;;;;;4.70;99.90;;;;;;5032480;28;19928;-68
2022/11/12 01:46:40;;;;;;;;;;;4.70;99.90;;;;;;5029593;28;19925;-68
2022/11/12 01:49:09;;;;;;;;;;;4.70;99.90;;;;;;5029701;28;19948;-68
2022/11/12 01:51:38;;;;;;;;;;;4.70;99.90;;;;;;5032190;28;19940;-68
2022/11/12 01:54:06;;;;;;;;;;;4.70;99.90;;;;;;5033267;28;20275;-68
2022/11/12 01:56:32;;;;;;;;;;;4.60;99.90;;;;;;5029970;28;19921;-68
2022/11/12 01:59:02;;;;;;;;;;;4.60;99.90;;;;;;5030793;28;20443;-68
2022/11/12 02:01:27;;;;;;;;;;;4.60;99.90;;;;;;5046772;28;19929;-69
2022/11/12 02:03:54;;;;;;;;;;;4.60;99.90;;;;;;5029931;28;20397;-69
2022/11/12 02:06:19;;;;;;;;;;;4.60;99.90;;;;;;5030982;28;19928;-68
2022/11/12 02:08:45;;;;;;;;;;;4.50;99.90;;;;;;5048671;28;19929;-68
2022/11/12 02:11:15;;;;;;;;;;;4.50;99.90;;;;;;5050098;28;19929;-68
2022/11/12 02:16:41;;;;;;;;;;;4.50;99.90;;;;;;5044470;28;19986;-68
2022/11/12 02:19:09;;;;;;;;;;;4.50;99.90;;;;;;5042729;28;19920;-68
2022/11/12 02:21:34;;;;;;;;;;;4.50;99.90;;;;;;5035388;28;19956;-69
2022/11/12 02:24:12;;;;;;;;;;;4.40;99.90;;;;;;5038545;28;19956;-68
2022/11/12 02:26:42;;;;;;;;;;;4.40;99.90;;;;;;5034225;28;19937;-68
2022/11/12 02:29:08;;;;;;;;;;;4.40;99.90;;;;;;5036007;28;19939;-68
2022/11/12 02:31:33;;;;;;;;;;;4.40;99.90;;;;;;5036274;28;20313;-68
2022/11/12 02:33:59;;;;;;;;;;;4.60;99.90;;;;;;5034220;28;20461;-69
2022/11/12 02:36:25;;;;;;;;;;;4.60;99.90;;;;;;5025168;28;19922;-68
2022/11/12 02:38:50;;;;;;;;;;;4.60;99.90;;;;;;5016801;28;20307;-68
2022/11/12 02:41:16;;;;;;;;;;;4.50;99.90;;;;;;5053308;28;19928;-68
2022/11/12 02:43:41;;;;;;;;;;;4.40;99.90;;;;;;5036390;28;19921;-68
2022/11/12 02:46:07;;;;;;;;;;;4.40;99.90;;;;;;5036195;28;20019;-68
2022/11/12 02:48:32;;;;;;;;;;;4.50;99.90;;;;;;5049701;28;20054;-68
2022/11/12 02:50:58;;;;;;;;;;;4.60;99.90;;;;;;5035952;28;20008;-68
2022/11/12 02:53:24;;;;;;;;;;;4.50;99.90;;;;;;5034175;28;20630;-68
2022/11/12 02:55:49;;;;;;;;;;;4.40;99.90;;;;;;5035576;28;19929;-68
2022/11/12 02:58:15;;;;;;;;;;;4.40;99.90;;;;;;5054774;28;19974;-68
2022/11/12 03:00:40;;;;;;;;;;;4.50;99.90;;;;;;5034846;28;19928;-68
2022/11/12 03:03:06;;;;;;;;;;;4.50;99.90;;;;;;5053513;28;19929;-68
2022/11/12 03:05:33;;;;;;;;;;;4.50;99.90;;;;;;5030771;28;19920;-68
2022/11/12 03:08:02;;;;;;;;;;;4.30;99.90;;;;;;5049424;28;20039;-68
2022/11/12 03:10:28;;;;;;;;;;;4.50;99.90;;;;;;5034575;28;19925;-69
2022/11/12 03:12:57;;;;;;;;;;;4.40;99.90;;;;;;5052982;28;19920;-69
2022/11/12 03:15:23;;;;;;;;;;;4.30;99.90;;;;;;5034311;28;19924;-68
2022/11/12 03:17:49;;;;;;;;;;;4.30;99.90;;;;;;5036188;28;19994;-68
2022/11/12 03:20:14;;;;;;;;;;;4.30;99.90;;;;;;5034799;28;20290;-68
2022/11/12 03:22:40;;;;;;;;;;;4.20;99.90;;;;;;5025153;28;19925;-68
2022/11/12 03:25:06;;;;;;;;;;;4.20;99.90;;;;;;5048529;28;19999;-68
2022/11/12 03:27:31;;;;;;;;;;;4.20;99.90;;;;;;5034255;28;20524;-68
2022/11/12 03:29:57;;;;;;;;;;;4.20;99.90;;;;;;5034120;28;20027;-68
2022/11/12 03:32:23;;;;;;;;;;;4.20;99.90;;;;;;5033661;28;19921;-68
2022/11/12 03:34:48;;;;;;;;;;;4.20;99.90;;;;;;5053618;28;19952;-68
2022/11/12 03:37:14;;;;;;;;;;;4.20;99.90;;;;;;5033311;28;20374;-68
2022/11/12 03:39:39;;;;;;;;;;;4.10;99.90;;;;;;5025049;28;19925;-68
2022/11/12 03:42:05;;;;;;;;;;;4.10;99.90;;;;;;5032881;28;20656;-68
2022/11/12 03:44:30;;;;;;;;;;;4.10;99.90;;;;;;5052618;28;19994;-68
2022/11/12 03:46:56;;;;;;;;;;;4.10;99.90;;;;;;5035077;28;19924;-68
2022/11/12 03:49:21;;;;;;;;;;;4.10;99.90;;;;;;5035134;28;19928;-68
2022/11/12 03:51:47;;;;;;;;;;;4.10;99.90;;;;;;5050918;28;20352;-68
2022/11/12 03:54:12;;;;;;;;;;;4.10;99.90;;;;;;5032225;28;19921;-68
2022/11/12 03:56:38;;;;;;;;;;;4.10;99.90;;;;;;5024005;28;19971;-69
2022/11/12 03:59:03;;;;;;;;;;;4.20;99.90;;;;;;5034796;28;19927;-68
2022/11/12 04:01:29;;;;;;;;;;;4.20;99.90;;;;;;5052078;28;19921;-68
2022/11/12 04:03:54;;;;;;;;;;;4.20;99.90;;;;;;5035188;28;19931;-68
2022/11/12 04:09:04;;;;;;;;;;;4.20;99.90;;;;;;5033244;28;19929;-69
2022/11/12 04:11:29;;;;;;;;;;;4.00;99.90;;;;;;5032759;28;20282;-69
2022/11/12 04:13:55;;;;;;;;;;;4.00;99.90;;;;;;5035278;28;19921;-69
2022/11/12 04:21:54;;;;;;;;;;;4.10;99.90;;;;;;5051515;28;19928;-69
2022/11/12 04:27:13;;;;;;;;;;;4.00;99.90;;;;;;5052107;28;19921;-68
2022/11/12 04:32:24;;;;;;;;;;;4.00;99.90;;;;;;5052278;28;19928;-69
2022/11/12 04:34:50;;;;;;;;;;;4.00;99.90;;;;;;5033872;28;20059;-69
2022/11/12 04:37:16;;;;;;;;;;;4.00;99.90;;;;;;5051987;28;19920;-69
2022/11/12 04:39:41;;;;;;;;;;;4.00;99.90;;;;;;5034295;28;19943;-69
2022/11/12 04:45:04;;;;;;;;;;;4.00;99.90;;;;;;5051064;28;19920;-69
2022/11/12 04:47:39;;;;;;;;;;;3.90;99.90;;;;;;5032708;28;19981;-69
2022/11/12 04:50:12;;;;;;;;;;;4.00;99.90;;;;;;5050957;28;19935;-69
2022/11/12 04:52:38;;;;;;;;;;;4.00;99.90;;;;;;5051261;28;19983;-69
2022/11/12 04:55:04;;;;;;;;;;;4.00;99.90;;;;;;5051641;28;19963;-69
2022/11/12 04:57:29;;;;;;;;;;;3.90;99.90;;;;;;5033217;28;20376;-69
2022/11/12 04:59:55;;;;;;;;;;;3.90;99.90;;;;;;5031455;28;20569;-69
2022/11/12 05:02:20;;;;;;;;;;;3.90;99.90;;;;;;5033634;28;19920;-69
2022/11/12 05:04:46;;;;;;;;;;;3.90;99.90;;;;;;5051848;28;20423;-69
2022/11/12 05:07:12;;;;;;;;;;;3.90;99.90;;;;;;5027603;28;19925;-69
2022/11/12 05:09:38;;;;;;;;;;;3.90;99.90;;;;;;5050438;28;19966;-69
2022/11/12 05:12:04;;;;;;;;;;;3.90;99.90;;;;;;5050918;28;19929;-69
2022/11/12 05:14:29;;;;;;;;;;;4.00;99.90;;;;;;5031541;28;19948;-69
2022/11/12 05:16:55;;;;;;;;;;;3.90;99.90;;;;;;5031791;28;19920;-69
2022/11/12 05:19:20;;;;;;;;;;;3.90;99.90;;;;;;5049391;28;20355;-69
2022/11/12 05:22:04;;;;;;;;;;;3.90;99.90;;;;;;5032359;28;20013;-69
2022/11/12 05:24:35;;;;;;;;;;;3.90;99.90;;;;;;5033181;28;20017;-69
2022/11/12 05:27:00;;;;;;;;;;;3.90;99.90;;;;;;5032025;28;20015;-69
2022/11/12 05:29:26;;;;;;;;;;;3.90;99.90;;;;;;5032223;28;19929;-69
2022/11/12 05:31:51;;;;;;;;;;;3.80;99.90;;;;;;5026307;28;19944;-69
2022/11/12 05:34:17;;;;;;;;;;;3.80;99.90;;;;;;5034112;28;20389;-69
2022/11/12 05:36:42;;;;;;;;;;;3.80;99.90;;;;;;5033510;28;19964;-69
2022/11/12 05:39:08;;;;;;;;;;;3.90;99.90;;;;;;5032935;28;20362;-69
2022/11/12 05:41:33;;;;;;;;;;;3.80;99.90;;;;;;5050973;28;19971;-69
2022/11/12 05:43:59;;;;;;;;;;;3.90;99.90;;;;;;5050794;28;20267;-69
2022/11/12 05:46:24;;;;;;;;;;;3.80;99.90;;;;;;5033100;28;19927;-69
2022/11/12 05:48:50;;;;;;;;;;;3.90;99.90;;;;;;5028314;28;20333;-69
2022/11/12 05:51:15;;;;;;;;;;;3.80;99.90;;;;;;5036151;28;19925;-69
2022/11/12 05:53:41;;;;;;;;;;;3.80;99.90;;;;;;5036637;28;19968;-69
2022/11/12 05:56:07;;;;;;;;;;;3.80;99.90;;;;;;5036960;28;20267;-68
2022/11/12 05:58:34;;;;;;;;;;;3.70;99.90;;;;;;5020114;28;20270;-69
2022/11/12 06:00:59;;;;;;;;;;;3.70;99.90;;;;;;5033849;28;20502;-69
2022/11/12 06:03:25;;;;;;;;;;;3.70;99.90;;;;;;5049266;28;19925;-68
2022/11/12 06:05:51;;;;;;;;;;;3.70;99.90;;;;;;5047029;28;19925;-69
2022/11/12 06:08:17;;;;;;;;;;;3.70;99.90;;;;;;5065672;23;20432;-69
2022/11/12 06:10:46;;;;;;;;;;;3.70;99.90;;;;;;5040737;28;20358;-69
2022/11/12 06:13:12;;;;;;;;;;;3.70;99.90;;;;;;5039263;28;19925;-69
2022/11/12 06:15:37;;;;;;;;;;;3.70;99.90;;;;;;5035688;28;19935;-69
2022/11/12 06:18:03;;;;;;;;;;;3.70;99.90;;;;;;5037720;28;19974;-69
2022/11/12 06:20:28;;;;;;;;;;;3.70;99.90;;;;;;5036048;28;19921;-69
2022/11/12 06:22:55;;;;;;;;;;;3.70;99.90;;;;;;5054463;28;20274;-69
2022/11/12 06:25:20;;;;;;;;;;;3.70;99.90;;;;;;5048791;28;19924;-69
2022/11/12 06:27:46;;;;;;;;;;;3.70;99.90;;;;;;5037069;28;20046;-69
2022/11/12 06:30:11;;;;;;;;;;;3.60;99.90;;;;;;5036583;28;19932;-69
2022/11/12 06:32:37;;;;;;;;;;;3.70;99.90;;;;;;5031602;28;19925;-69
2022/11/12 06:35:02;;;;;;;;;;;3.60;99.90;;;;;;5027199;28;20259;-69
2022/11/12 06:37:28;;;;;;;;;;;3.60;99.90;;;;;;5035785;28;20388;-69
2022/11/12 06:39:53;;;;;;;;;;;3.60;99.90;;;;;;5034564;28;19943;-69
2022/11/12 06:42:19;;;;;;;;;;;3.60;99.90;;;;;;5020216;28;19987;-69
2022/11/12 06:44:44;;;;;;;;;;;3.60;99.90;;;;;;5034883;28;19924;-69
2022/11/12 06:47:10;;;;;;;;;;;3.60;99.90;;;;;;5054259;28;19931;-69
2022/11/12 06:49:35;;;;;;;;;;;3.60;99.90;;;;;;5033193;28;19968;-69
2022/11/12 06:52:01;;;;;;;;;;;3.60;99.90;;;;;;5036158;28;20459;-69
2022/11/12 06:54:26;;;;;;;;;;;3.70;99.90;;;;;;5034837;28;19921;-69
2022/11/12 06:56:52;;;;;;;;;;;3.80;99.90;;;;;;5035873;28;19921;-69
2022/11/12 06:59:17;;;;;;;;;;;3.90;99.90;;;;;;5035928;28;19920;-68
2022/11/12 07:01:43;;;;;;;;;;;4.00;99.90;;;;;;5024791;28;19921;-68
2022/11/12 07:04:09;;;;;;;;;;;4.10;99.90;;;;;;5030666;28;19972;-69
2022/11/12 07:06:35;;;;;;;;;;;4.20;99.90;;;;;;5018763;28;19932;-69
2022/11/12 07:09:00;;;;;;;;;;;4.30;99.90;;;;;;5031257;28;19929;-69
2022/11/12 07:11:26;;;;;;;;;;;4.40;99.90;;;;;;5039806;28;20322;-69
2022/11/12 07:13:51;;;;;;;;;;;4.50;99.90;;;;;;5019395;28;20518;-68
2022/11/12 07:16:17;;;;;;;;;;;4.60;99.90;;;;;;5009283;28;19975;-68
2022/11/12 07:18:43;;;;;;;;;;;4.60;99.90;;;;;;5028587;28;19963;-69
2022/11/12 07:21:10;;;;;;;;;;;4.70;99.90;;;;;;5023883;28;19925;-69
2022/11/12 07:23:36;;;;;;;;;;;4.80;99.90;;;;;;5031051;28;20027;-69
2022/11/12 07:26:03;;;;;;;;;;;4.80;99.90;;;;;;5034259;28;20019;-69
2022/11/12 07:28:29;;;;;;;;;;;5.00;99.90;;;;;;5032530;28;19928;-68
2022/11/12 07:30:55;;;;;;;;;;;5.00;99.90;;;;;;5038473;28;20273;-68
2022/11/12 07:33:20;;;;;;;;;;;5.10;99.90;;;;;;5027701;28;19968;-68
2022/11/12 07:35:46;;;;;;;;;;;5.10;99.90;;;;;;5028189;28;20313;-68
2022/11/12 07:38:11;;;;;;;;;;;5.10;99.90;;;;;;5018124;28;19921;-68
2022/11/12 07:40:37;;;;;;;;;;;5.20;99.90;;;;;;5023943;28;19927;-68
2022/11/12 07:43:02;;;;;;;;;;;5.30;99.90;;;;;;5037856;28;19936;-68
2022/11/12 07:45:28;;;;;;;;;;;5.30;99.90;;;;;;5055362;28;19927;-68
2022/11/12 07:47:53;;;;;;;;;;;5.40;99.90;;;;;;5054807;28;20001;-68
2022/11/12 07:50:19;;;;;;;;;;;5.40;99.90;;;;;;5037639;28;19932;-68
2022/11/12 07:52:44;;;;;;;;;;;5.50;99.90;;;;;;5052773;28;20015;-68
2022/11/12 07:55:09;;;;;;;;;;;5.50;99.90;;;;;;5031126;28;20298;-68
2022/11/12 07:57:35;;;;;;;;;;;5.60;99.90;;;;;;5034855;28;19920;-68
2022/11/12 08:00:01;;;;;;;;;;;5.70;99.90;;;;;;5044334;28;19951;-68
2022/11/12 08:02:26;;;;;;;;;;;5.70;99.90;;;;;;5055423;28;19974;-68
2022/11/12 08:04:51;;;;;;;;;;;5.70;99.90;;;;;;5037326;28;19966;-68
2022/11/12 08:07:17;;;;;;;;;;;5.80;99.90;;;;;;5020703;28;20015;-68
2022/11/12 08:09:42;;;;;;;;;;;5.90;99.90;;;;;;5037386;28;19927;-68
2022/11/12 08:12:08;;;;;;;;;;;5.90;99.90;;;;;;5037336;28;20007;-68
2022/11/12 08:14:33;;;;;;;;;;;6.00;99.90;;;;;;5037024;28;20370;-68
2022/11/12 08:16:59;;;;;;;;;;;5.90;99.90;;;;;;5036734;28;19960;-68
2022/11/12 08:19:24;;;;;;;;;;;5.90;99.90;;;;;;5036945;28;19947;-68
2022/11/12 08:21:50;;;;;;;;;;;6.00;99.90;;;;;;5036861;28;19970;-68
2022/11/12 08:24:15;;;;;;;;;;;6.10;99.90;;;;;;5009651;28;20685;-68
2022/11/12 08:26:41;;;;;;;;;;;6.20;99.90;;;;;;5031268;28;19979;-68
2022/11/12 08:29:06;;;;;;;;;;;6.20;99.90;;;;;;5052936;28;20018;-69
2022/11/12 08:31:32;;;;;;;;;;;6.30;99.90;;;;;;5037907;28;19925;-68
2022/11/12 08:33:57;;;;;;;;;;;6.30;99.90;;;;;;5047455;28;19921;-68
2022/11/12 08:36:23;;;;;;;;;;;6.30;99.90;;;;;;5052832;28;20054;-68
2022/11/12 08:38:50;;;;;;;;;;;6.40;99.90;;;;;;5029012;28;19927;-68
2022/11/12 08:41:16;;;;;;;;;;;6.50;99.90;;;;;;5030643;28;19928;-68
2022/11/12 08:43:42;;;;;;;;;;;6.60;99.90;;;;;;5048540;28;19921;-68
2022/11/12 08:46:07;;;;;;;;;;;6.60;99.90;;;;;;5046694;28;20398;-68
2022/11/12 08:48:33;;;;;;;;;;;6.70;99.90;;;;;;5025453;28;19921;-68
2022/11/12 08:51:03;;;;;;;;;;;6.80;99.90;;;;;;5016491;28;20252;-68
2022/11/12 08:53:28;;;;;;;;;;;6.90;99.90;;;;;;5019672;28;19920;-68
2022/11/12 08:55:54;;;;;;;;;;;6.90;99.90;;;;;;5047199;28;19921;-68
2022/11/12 08:58:20;;;;;;;;;;;7.00;99.90;;;;;;5031296;28;20278;-68
2022/11/12 09:00:45;;;;;;;;;;;7.10;99.90;;;;;;5024263;28;19947;-68
2022/11/12 09:03:12;;;;;;;;;;;7.10;99.90;;;;;;5019274;28;19928;-68
2022/11/12 09:05:38;;;;;;;;;;;7.20;99.90;;;;;;5025355;28;20279;-68
2022/11/12 09:08:04;;;;;;;;;;;7.30;99.90;;;;;;5033150;28;19932;-68
2022/11/12 09:10:30;;;;;;;;;;;7.30;99.90;;;;;;5037254;28;20367;-68
2022/11/12 09:12:56;;;;;;;;;;;7.50;99.90;;;;;;5044172;28;19921;-68
2022/11/12 09:15:22;;;;;;;;;;;7.50;99.90;;;;;;5045116;28;20252;-69
2022/11/12 09:17:53;;;;;;;;;;;7.60;99.90;;;;;;5021264;28;20356;-69
2022/11/12 09:20:19;;;;;;;;;;;7.60;99.90;;;;;;5026183;28;19928;-68
2022/11/12 09:22:44;;;;;;;;;;;7.70;99.90;;;;;;5026753;28;19975;-68
2022/11/12 09:25:10;;;;;;;;;;;7.80;99.90;;;;;;5021349;28;20366;-68
2022/11/12 09:27:35;;;;;;;;;;;7.80;99.90;;;;;;5029478;28;19929;-68
2022/11/12 09:30:00;;;;;;;;;;;7.90;99.90;;;;;;5028169;28;20016;-68
2022/11/12 09:32:26;;;;;;;;;;;7.90;99.90;;;;;;5028770;28;20263;-68
2022/11/12 09:34:51;;;;;;;;;;;8.00;99.90;;;;;;5047636;28;19964;-68
2022/11/12 09:37:17;;;;;;;;;;;8.00;99.90;;;;;;5022288;28;20417;-68
2022/11/12 09:39:42;;;;;;;;;;;8.00;99.90;;;;;;5022837;28;20012;-68
2022/11/12 09:42:11;;;;;;;;;;;8.10;99.90;;;;;;5026764;28;19921;-68
2022/11/12 09:44:38;;;;;;;;;;;8.10;99.90;;;;;;5022676;28;20321;-68
2022/11/12 09:47:13;;;;;;;;;;;8.10;99.90;;;;;;5034374;28;19975;-68
2022/11/12 09:49:49;;;;;;;;;;;8.10;99.90;;;;;;5030099;28;19921;-68
2022/11/12 09:52:42;;;;;;;;;;;8.20;99.90;;;;;;5042996;28;19929;-68
2022/11/12 09:55:10;;;;;;;;;;;8.30;99.90;;;;;;5025825;28;20321;-68
2022/11/12 09:57:36;;;;;;;;;;;8.30;99.90;;;;;;5031926;28;19996;-68
2022/11/12 10:00:02;;;;;;;;;;;8.20;99.90;;;;;;5022395;28;20004;-68
2022/11/12 10:02:37;;;;;;;;;;;8.20;99.90;;;;;;5012633;28;19974;-68
2022/11/12 10:05:10;;;;;;;;;;;8.20;99.90;;;;;;5012885;28;19925;-68
2022/11/12 10:07:45;;;;;;;;;;;8.20;99.90;;;;;;5029635;28;19925;-68
2022/11/12 10:10:34;;;;;;;;;;;8.30;99.90;;;;;;5030567;28;19976;-68
2022/11/12 10:13:08;;;;;;;;;;;8.30;99.90;;;;;;5045482;28;20413;-69
2022/11/12 10:18:18;;;;;;;;;;;8.30;99.90;;;;;;5050315;28;19940;-69
2022/11/12 10:20:46;;;;;;;;;;;8.40;99.90;;;;;;5024884;28;20271;-69
2022/11/12 10:23:20;;;;;;;;;;;8.50;99.90;;;;;;5018125;28;19932;-69
2022/11/12 10:25:46;;;;;;;;;;;8.60;99.90;;;;;;5020722;28;19933;-69
2022/11/12 10:28:33;;;;;;;;;;;8.70;99.90;;;;;;5017355;28;19921;-68
2022/11/12 10:31:01;;;;;;;;;;;8.80;99.90;;;;;;5017514;28;19926;-68
2022/11/12 10:33:30;;;;;;;;;;;8.90;99.90;;;;;;5025075;28;19927;-68
2022/11/12 10:36:08;;;;;;;;;;;8.90;99.90;;;;;;5026207;28;19920;-68
2022/11/12 10:38:35;;;;;;;;;;;9.00;99.90;;;;;;5016279;28;19932;-68
2022/11/12 10:41:16;;;;;;;;;;;9.10;99.90;;;;;;5036261;28;20393;-68
2022/11/12 10:43:51;;;;;;;;;;;9.20;99.90;;;;;;5028890;28;20045;-68
2022/11/12 10:46:18;;;;;;;;;;;9.30;99.90;;;;;;5028140;28;20405;-68
2022/11/12 10:48:52;;;;;;;;;;;9.30;99.90;;;;;;5019201;28;19927;-68
2022/11/12 10:51:22;;;;;;;;;;;9.40;99.90;;;;;;5027299;28;19925;-69
2022/11/12 10:53:47;;;;;;;;;;;9.40;99.90;;;;;;5034871;28;19956;-68
2022/11/12 10:56:26;;;;;;;;;;;9.40;99.90;;;;;;5039391;28;19960;-68
2022/11/12 10:59:11;;;;;;;;;;;9.50;99.90;;;;;;5035956;28;20058;-68
2022/11/12 11:01:36;;;;;;;;;;;9.50;99.90;;;;;;5001091;28;19928;-68
2022/11/12 11:04:02;;;;;;;;;;;9.50;99.90;;;;;;5038847;28;20338;-68
2022/11/12 11:06:27;;;;;;;;;;;9.50;99.90;;;;;;5035472;28;20294;-68
2022/11/12 11:09:06;;;;;;;;;;;9.60;99.90;;;;;;5035612;28;19932;-68
2022/11/12 11:11:32;;;;;;;;;;;9.70;99.90;;;;;;5031476;28;19933;-68
2022/11/12 11:14:17;;;;;;;;;;;9.80;99.90;;;;;;5048497;28;19927;-68
2022/11/12 11:16:58;;;;;;;;;;;9.90;99.90;;;;;;5027102;28;19925;-68
2022/11/12 11:19:36;;;;;;;;;;;10.00;99.90;;;;;;5035623;28;19925;-68
2022/11/12 11:22:08;;;;;;;;;;;10.00;99.90;;;;;;5026343;28;19965;-69
2022/11/12 11:24:36;;;;;;;;;;;10.10;99.90;;;;;;5034206;28;19955;-69
2022/11/12 11:27:07;;;;;;;;;;;10.20;99.90;;;;;;5024898;28;19931;-69
2022/11/12 11:29:55;;;;;;;;;;;10.30;99.90;;;;;;5025892;28;19925;-69
2022/11/12 11:32:39;;;;;;;;;;;10.40;99.90;;;;;;5029841;28;19928;-69
2022/11/12 11:35:25;;;;;;;;;;;10.50;99.90;;;;;;5029795;28;20783;-69
2022/11/12 11:38:09;;;;;;;;;;;10.60;99.90;;;;;;5025878;28;20012;-69
2022/11/12 11:40:36;;;;;;;;;;;10.80;99.90;;;;;;5027557;28;20012;-69
2022/11/12 11:43:09;;;;;;;;;;;10.90;99.90;;;;;;5028298;28;20421;-69
2022/11/12 11:45:58;;;;;;;;;;;11.00;99.90;;;;;;5025321;28;19928;-69
2022/11/12 11:48:46;;;;;;;;;;;11.00;99.90;;;;;;5018858;28;19921;-69
2022/11/12 11:51:11;;;;;;;;;;;11.10;99.90;;;;;;5025327;28;19990;-67
2022/11/12 11:53:37;;;;;;;;;;;11.20;99.90;;;;;;5025767;28;20729;-69
2022/11/12 11:56:07;;;;;;;;;;;11.30;99.90;;;;;;5027944;28;19948;-69
2022/11/12 11:58:39;;;;;;;;;;;11.40;99.90;;;;;;5027360;28;20363;-69
2022/11/12 12:01:04;;;;;;;;;;;11.40;99.90;;;;;;5028214;28;19986;-69
2022/11/12 12:03:48;;;;;;;;;;;11.50;99.90;;;;;;5028829;28;20685;-69
2022/11/12 12:06:14;;;;;;;;;;;11.60;99.90;;;;;;5027313;28;19925;-69
2022/11/12 12:08:53;;;;;;;;;;;11.70;99.90;;;;;;5028843;28;20016;-69
2022/11/12 12:11:32;;;;;;;;;;;11.80;99.90;;;;;;5022404;28;19980;-69
2022/11/12 12:14:18;;;;;;;;;;;12.00;99.90;;;;;;5029702;28;19928;-69
2022/11/12 12:16:44;;;;;;;;;;;12.10;99.90;;;;;;4996258;28;19921;-69
2022/11/12 12:19:15;;;;;;;;;;;12.30;99.90;;;;;;5034350;28;19931;-68
2022/11/12 12:21:43;;;;;;;;;;;12.40;99.90;;;;;;5019735;28;20406;-69
2022/11/12 12:24:13;;;;;;;;;;;12.40;99.90;;;;;;5047520;28;19925;-69
2022/11/12 12:26:41;;;;;;;;;;;12.50;99.90;;;;;;5026883;28;20036;-69
2022/11/12 12:29:11;;;;;;;;;;;12.60;99.90;;;;;;5044575;28;19983;-69
2022/11/12 12:31:42;;;;;;;;;;;12.50;99.90;;;;;;5045345;28;19929;-69
2022/11/12 12:34:14;;;;;;;;;;;12.60;99.90;;;;;;5048187;28;19924;-69
2022/11/12 12:36:41;;;;;;;;;;;12.50;99.90;;;;;;5028229;28;20326;-69
2022/11/12 12:39:06;;;;;;;;;;;12.60;99.90;;;;;;5042107;28;19921;-69
2022/11/12 12:41:35;;;;;;;;;;;12.60;99.90;;;;;;5034082;28;19932;-68
2022/11/12 12:44:05;;;;;;;;;;;12.60;99.90;;;;;;5042588;28;19931;-68
2022/11/12 12:46:35;;;;;;;;;;;12.60;99.90;;;;;;5033929;28;19921;-68
2022/11/12 12:49:02;;;;;;;;;;;12.50;99.90;;;;;;5052260;28;19936;-68
2022/11/12 12:51:29;;;;;;;;;;;12.40;99.90;;;;;;5047005;28;19971;-68
2022/11/12 12:53:55;;;;;;;;;;;12.40;99.90;;;;;;5028901;28;19935;-68
2022/11/12 12:56:26;;;;;;;;;;;12.40;99.90;;;;;;5051243;28;19929;-68
2022/11/12 12:58:52;;;;;;;;;;;12.30;99.90;;;;;;5025836;28;19925;-68
2022/11/12 13:01:27;;;;;;;;;;;12.30;99.90;;;;;;5051422;28;19925;-68
2022/11/12 13:04:03;;;;;;;;;;;12.30;99.90;;;;;;5051468;28;19971;-68
2022/11/12 13:06:37;;;;;;;;;;;12.30;99.90;;;;;;5043434;28;19925;-68
2022/11/12 13:09:19;;;;;;;;;;;12.30;99.90;;;;;;5026338;28;19941;-68
2022/11/12 13:14:39;;;;;;;;;;;12.30;99.90;;;;;;5050751;28;20424;-68
2022/11/12 13:17:07;;;;;;;;;;;12.30;99.90;;;;;;5050883;28;20605;-68
2022/11/12 13:19:34;;;;;;;;;;;12.30;99.90;;;;;;5017029;28;19948;-68
2022/11/12 13:22:18;;;;;;;;;;;12.30;99.90;;;;;;5030308;28;20011;-68
2022/11/12 13:24:58;;;;;;;;;;;12.20;99.90;;;;;;5038297;28;19928;-68
2022/11/12 13:27:42;;;;;;;;;;;12.20;99.90;;;;;;5029212;28;19925;-68
2022/11/12 13:30:09;;;;;;;;;;;12.20;99.90;;;;;;5037393;28;19925;-68
2022/11/12 13:32:35;;;;;;;;;;;12.20;99.90;;;;;;5025175;28;19971;-68
2022/11/12 13:35:12;;;;;;;;;;;12.10;99.90;;;;;;5050311;28;19968;-68
2022/11/12 13:37:42;;;;;;;;;;;12.10;99.90;;;;;;5042288;28;19925;-68
2022/11/12 13:40:10;;;;;;;;;;;12.00;99.90;;;;;;5028056;28;20008;-68
2022/11/12 13:42:48;;;;;;;;;;;12.00;99.90;;;;;;5015691;28;20406;-68
2022/11/12 13:45:19;;;;;;;;;;;11.90;99.90;;;;;;5026084;28;21378;-68
2022/11/12 13:47:45;;;;;;;;;;;11.90;99.90;;;;;;5033159;28;19921;-68
2022/11/12 13:50:16;;;;;;;;;;;11.90;99.90;;;;;;5046786;28;20035;-68
2022/11/12 13:52:42;;;;;;;;;;;11.90;99.90;;;;;;5020340;28;19925;-68
2022/11/12 13:55:15;;;;;;;;;;;11.90;99.90;;;;;;5033980;28;20415;-68
2022/11/12 13:57:40;;;;;;;;;;;11.80;99.90;;;;;;5029677;28;20397;-68
2022/11/12 14:00:15;;;;;;;;;;;11.70;99.90;;;;;;5015361;28;19925;-68
2022/11/12 14:02:42;;;;;;;;;;;11.60;99.90;;;;;;5045550;28;20037;-68
2022/11/12 14:05:15;;;;;;;;;;;11.60;99.90;;;;;;5046696;28;20423;-68
2022/11/12 14:07:44;;;;;;;;;;;11.50;99.90;;;;;;5035459;28;19972;-68
2022/11/12 14:10:18;;;;;;;;;;;11.50;99.90;;;;;;5030761;28;20263;-68
2022/11/12 14:12:55;;;;;;;;;;;11.50;99.90;;;;;;5054262;28;19925;-68
2022/11/12 14:15:39;;;;;;;;;;;11.40;99.90;;;;;;5036375;28;19924;-68
2022/11/12 14:18:11;;;;;;;;;;;11.40;99.90;;;;;;5031797;28;19966;-68
2022/11/12 14:20:40;;;;;;;;;;;11.40;99.90;;;;;;5036198;28;19921;-68
2022/11/12 14:23:21;;;;;;;;;;;11.40;99.90;;;;;;5053173;28;20055;-68
2022/11/12 14:25:48;;;;;;;;;;;11.30;99.90;;;;;;5043259;28;20251;-68
2022/11/12 14:28:28;;;;;;;;;;;11.20;99.90;;;;;;5025554;28;20022;-68
2022/11/12 14:30:54;;;;;;;;;;;11.20;99.90;;;;;;5054288;28;19996;-68
2022/11/12 14:33:22;;;;;;;;;;;11.20;99.90;;;;;;5036497;28;19925;-68
2022/11/12 14:35:48;;;;;;;;;;;11.20;99.90;;;;;;5019392;28;20030;-68
2022/11/12 14:38:18;;;;;;;;;;;11.10;99.90;;;;;;5031838;28;20282;-68
2022/11/12 14:40:46;;;;;;;;;;;11.10;99.90;;;;;;5029741;28;19921;-68
2022/11/12 14:43:20;;;;;;;;;;;11.00;99.90;;;;;;5049823;28;19925;-68
2022/11/12 14:45:50;;;;;;;;;;;11.00;99.90;;;;;;5051489;28;19929;-68
2022/11/12 14:48:16;;;;;;;;;;;10.90;99.90;;;;;;5036297;28;19925;-68
2022/11/12 14:50:41;;;;;;;;;;;10.90;99.90;;;;;;5044273;28;19979;-68
2022/11/12 14:53:11;;;;;;;;;;;10.80;99.90;;;;;;5024369;28;19925;-69
2022/11/12 14:55:39;;;;;;;;;;;10.80;99.90;;;;;;5024858;28;20400;-69
2022/11/12 14:58:04;;;;;;;;;;;10.70;99.90;;;;;;5027134;28;20366;-69